Time;durP1;ratioP1;P1;durP2;ratioP2;P2;SDS_P1;SDS_P2;PMS_P1;PMS_P2;Temp;Humidity;BMP_temperature;BMP_pressure;BME280_temperature;BME280_humidity;BME280_pressure;Samples;Min_cycle;Max_cycle;Signal;HPM_P1;HPM_P2
2022/08/27 00:02:09;;;;;;;;;;;;;;;24.75;54.72;101248.34;5102764;28;19931;-37
2022/08/27 00:04:35;;;;;;;;;;;;;;;24.75;54.73;101250.31;5121225;28;19932;-37
2022/08/27 00:07:01;;;;;;;;;;;;;;;24.75;54.81;101256.69;5104765;28;19934;-38
2022/08/27 00:09:27;;;;;;;;;;;;;;;24.75;54.79;101258.66;5120036;28;20357;-37
2022/08/27 00:11:53;;;;;;;;;;;;;;;24.74;54.70;101257.00;5100461;28;19930;-37
2022/08/27 00:14:18;;;;;;;;;;;;;;;24.74;54.74;101257.00;5122206;28;20073;-37
2022/08/27 00:16:44;;;;;;;;;;;;;;;24.74;54.76;101251.41;5121110;28;19924;-37
2022/08/27 00:19:10;;;;;;;;;;;;;;;24.74;54.81;101248.63;5118054;28;20374;-37
2022/08/27 00:21:36;;;;;;;;;;;;;;;24.73;54.71;101256.16;5099488;28;20158;-37
2022/08/27 00:24:01;;;;;;;;;;;;;;;24.74;54.73;101255.06;5101177;28;20007;-37
2022/08/27 00:26:27;;;;;;;;;;;;;;;24.74;54.77;101246.69;5123284;28;19938;-37
2022/08/27 00:28:52;;;;;;;;;;;;;;;24.74;54.79;101252.28;5104645;28;20385;-37
2022/08/27 00:31:18;;;;;;;;;;;;;;;24.73;54.77;101245.03;5121471;28;19931;-37
2022/08/27 00:33:48;;;;;;;;;;;;;;;24.74;54.76;101255.06;5125485;28;19924;-37
2022/08/27 00:36:14;;;;;;;;;;;;;;;24.73;54.70;101253.38;5118442;28;19924;-37
2022/08/27 00:38:40;;;;;;;;;;;;;;;24.74;54.79;101246.69;5122484;28;19927;-37
2022/08/27 00:41:07;;;;;;;;;;;;;;;24.73;54.70;101247.00;5098365;28;20420;-37
2022/08/27 00:43:53;;;;;;;;;;;;;;;24.73;54.74;101250.59;5117110;28;19969;-37
2022/08/27 00:46:21;;;;;;;;;;;;;;;24.73;54.79;101242.25;5102258;28;20424;-37
2022/08/27 00:48:46;;;;;;;;;;;;;;;24.73;54.79;101247.81;5104541;28;20029;-37
2022/08/27 00:51:12;;;;;;;;;;;;;;;24.74;54.71;101248.63;5119689;28;19932;-37
2022/08/27 00:53:37;;;;;;;;;;;;;;;24.73;54.76;101255.34;5116135;28;19942;-37
2022/08/27 00:56:20;;;;;;;;;;;;;;;24.73;54.84;101250.59;5121243;28;19932;-37
2022/08/27 00:58:46;;;;;;;;;;;;;;;24.73;54.77;101247.81;5106567;28;20027;-37
2022/08/27 01:01:13;;;;;;;;;;;;;;;24.72;54.77;101248.94;5125238;28;19955;-37
2022/08/27 01:03:39;;;;;;;;;;;;;;;24.72;54.77;101245.34;5099220;28;19969;-37
2022/08/27 01:06:05;;;;;;;;;;;;;;;24.72;54.77;101243.38;5118207;28;19932;-37
2022/08/27 01:08:32;;;;;;;;;;;;;;;24.72;54.78;101246.16;5102086;28;20066;-37
2022/08/27 01:10:57;;;;;;;;;;;;;;;24.72;54.78;101248.94;5117949;28;20393;-38
2022/08/27 01:13:23;;;;;;;;;;;;;;;24.72;54.76;101242.56;5120069;28;20334;-37
2022/08/27 01:16:10;;;;;;;;;;;;;;;24.72;54.78;101248.13;5088387;28;19978;-37
2022/08/27 01:18:36;;;;;;;;;;;;;;;24.72;54.75;101251.75;5121511;28;19930;-37
2022/08/27 01:21:04;;;;;;;;;;;;;;;24.71;54.75;101250.09;5101707;28;20022;-38
2022/08/27 01:23:35;;;;;;;;;;;;;;;24.71;54.70;101246.50;5118311;28;20034;-37
2022/08/27 01:26:01;;;;;;;;;;;;;;;24.72;54.71;101242.56;5114000;28;20031;-37
2022/08/27 01:28:28;;;;;;;;;;;;;;;24.71;54.80;101244.53;5107053;28;19932;-37
2022/08/27 01:31:04;;;;;;;;;;;;;;;24.71;54.76;101235.34;5117758;28;19923;-37
2022/08/27 01:33:30;;;;;;;;;;;;;;;24.72;54.83;101237.00;5102071;28;20394;-37
2022/08/27 01:35:55;;;;;;;;;;;;;;;24.72;54.84;101234.22;5117633;28;19931;-37
2022/08/27 01:38:23;;;;;;;;;;;;;;;24.71;54.78;101232.56;5116457;28;20053;-37
2022/08/27 01:40:57;;;;;;;;;;;;;;;24.71;54.72;101229.78;5114720;28;19931;-37
2022/08/27 01:43:23;;;;;;;;;;;;;;;24.70;54.72;101226.19;5097823;28;20251;-37
2022/08/27 01:45:49;;;;;;;;;;;;;;;24.71;54.80;101224.22;5117161;28;19943;-37
2022/08/27 01:48:16;;;;;;;;;;;;;;;24.71;54.75;101215.84;5118662;28;20057;-37
2022/08/27 01:50:42;;;;;;;;;;;;;;;24.71;54.71;101215.84;5121492;27;20370;-37
2022/08/27 01:53:11;;;;;;;;;;;;;;;24.71;54.70;101221.44;5123230;28;20017;-37
2022/08/27 01:55:36;;;;;;;;;;;;;;;24.71;54.75;101221.44;5125175;28;20014;-37
2022/08/27 01:58:02;;;;;;;;;;;;;;;24.69;54.75;101213.38;5120787;28;20001;-37
2022/08/27 02:00:29;;;;;;;;;;;;;;;24.70;54.73;101212.25;5126488;28;19973;-37
2022/08/27 02:02:55;;;;;;;;;;;;;;;24.71;54.76;101215.84;5125721;28;19923;-37
2022/08/27 02:05:21;;;;;;;;;;;;;;;24.71;54.67;101210.28;5103890;28;20285;-38
2022/08/27 02:07:46;;;;;;;;;;;;;;;24.71;54.76;101210.28;5121380;28;20382;-38
2022/08/27 02:10:14;;;;;;;;;;;;;;;24.70;54.71;101208.66;5120462;28;20418;-37
2022/08/27 02:12:40;;;;;;;;;;;;;;;24.70;54.78;101206.69;5127763;28;20026;-37
2022/08/27 02:15:05;;;;;;;;;;;;;;;24.70;54.73;101200.28;5118577;28;19930;-38
2022/08/27 02:17:31;;;;;;;;;;;;;;;24.70;54.72;101215.03;5104252;28;19927;-37
2022/08/27 02:19:57;;;;;;;;;;;;;;;24.69;54.74;101212.53;5126961;28;19923;-37
2022/08/27 02:22:23;;;;;;;;;;;;;;;24.70;54.74;101211.44;5122008;28;19943;-37
2022/08/27 02:24:49;;;;;;;;;;;;;;;24.71;54.71;101210.28;5122421;28;19923;-37
2022/08/27 02:27:15;;;;;;;;;;;;;;;24.69;54.73;101213.38;5119824;28;20018;-37
2022/08/27 02:29:40;;;;;;;;;;;;;;;24.69;54.75;101204.19;5122626;28;19928;-37
2022/08/27 02:32:06;;;;;;;;;;;;;;;24.69;54.73;101210.56;5119867;28;19935;-37
2022/08/27 02:34:31;;;;;;;;;;;;;;;24.70;54.70;101211.44;5104753;28;20365;-37
2022/08/27 02:36:57;;;;;;;;;;;;;;;24.70;54.81;101205.84;5122349;28;19923;-37
2022/08/27 02:39:22;;;;;;;;;;;;;;;24.70;54.74;101208.66;5124918;28;20393;-37
2022/08/27 02:41:48;;;;;;;;;;;;;;;24.70;54.74;101214.22;5121714;28;19967;-37
2022/08/27 02:44:14;;;;;;;;;;;;;;;24.69;54.71;101207.78;5105091;28;19924;-38
2022/08/27 02:46:40;;;;;;;;;;;;;;;24.69;54.75;101207.78;5120167;28;20258;-37
2022/08/27 02:49:06;;;;;;;;;;;;;;;24.68;54.79;101206.16;5105849;28;19998;-37
2022/08/27 02:51:32;;;;;;;;;;;;;;;24.68;54.78;101211.72;5122071;28;19955;-37
2022/08/27 02:53:59;;;;;;;;;;;;;;;24.69;54.69;101205.00;5120050;28;19923;-37
2022/08/27 02:56:25;;;;;;;;;;;;;;;24.69;54.69;101205.00;5119130;28;20044;-37
2022/08/27 02:58:50;;;;;;;;;;;;;;;24.69;54.74;101206.97;5125790;28;20290;-38
2022/08/27 03:01:16;;;;;;;;;;;;;;;24.69;54.69;101201.41;5122799;28;19948;-38
2022/08/27 03:03:41;;;;;;;;;;;;;;;24.68;54.68;101200.56;5122426;28;20358;-37
2022/08/27 03:06:07;;;;;;;;;;;;;;;24.68;54.79;101186.66;5121368;28;20330;-37
2022/08/27 03:08:32;;;;;;;;;;;;;;;24.68;54.65;101199.75;5101203;28;19977;-37
2022/08/27 03:11:18;;;;;;;;;;;;;;;24.69;54.74;101198.63;5108056;28;20364;-38
2022/08/27 03:13:44;;;;;;;;;;;;;;;24.68;54.68;101194.19;5121550;28;20015;-37
2022/08/27 03:16:09;;;;;;;;;;;;;;;24.69;54.64;101190.25;5121404;28;19973;-37
2022/08/27 03:18:35;;;;;;;;;;;;;;;24.67;54.71;101185.00;5123314;28;20361;-37
2022/08/27 03:21:02;;;;;;;;;;;;;;;24.68;54.74;101183.88;5119476;28;19923;-37
2022/08/27 03:23:31;;;;;;;;;;;;;;;24.68;54.66;101191.41;5125172;28;20676;-36
2022/08/27 03:25:58;;;;;;;;;;;;;;;24.69;54.74;101193.88;5104443;28;19998;-37
2022/08/27 03:28:24;;;;;;;;;;;;;;;24.69;54.77;101195.81;5121125;28;19973;-37
2022/08/27 03:30:51;;;;;;;;;;;;;;;24.68;54.73;101196.97;5119613;28;19932;-37
2022/08/27 03:33:18;;;;;;;;;;;;;;;24.68;54.81;101197.78;5123446;28;19954;-37
2022/08/27 03:35:44;;;;;;;;;;;;;;;24.68;54.67;101197.78;5121231;28;19970;-38
2022/08/27 03:38:15;;;;;;;;;;;;;;;24.67;54.68;101196.16;5104778;28;20019;-37
2022/08/27 03:40:41;;;;;;;;;;;;;;;24.68;54.69;101196.97;5120902;28;19927;-37
2022/08/27 03:43:07;;;;;;;;;;;;;;;24.68;54.74;101194.19;5123935;28;19923;-37
2022/08/27 03:45:33;;;;;;;;;;;;;;;24.67;54.75;101193.38;5120884;28;19969;-37
2022/08/27 03:48:18;;;;;;;;;;;;;;;24.67;54.81;101195.34;5106338;28;19939;-37
2022/08/27 03:50:45;;;;;;;;;;;;;;;24.67;54.69;101193.38;5118902;28;19963;-37
2022/08/27 03:53:11;;;;;;;;;;;;;;;24.67;54.71;101198.94;5107291;28;20455;-37
2022/08/27 03:55:37;;;;;;;;;;;;;;;24.67;54.65;101193.38;5100490;28;19924;-38
2022/08/27 03:58:02;;;;;;;;;;;;;;;24.67;54.58;101189.75;5119843;28;19992;-37
2022/08/27 04:00:28;;;;;;;;;;;;;;;24.67;54.69;101192.53;5104396;28;19924;-37
2022/08/27 04:02:54;;;;;;;;;;;;;;;24.67;54.58;101192.53;5102569;28;19959;-37
2022/08/27 04:05:19;;;;;;;;;;;;;;;24.67;54.72;101189.75;5120002;28;20274;-37
2022/08/27 04:07:46;;;;;;;;;;;;;;;24.67;54.74;101198.13;5120050;28;19966;-37
2022/08/27 04:10:12;;;;;;;;;;;;;;;24.67;54.65;101198.94;5120023;28;20010;-37
2022/08/27 04:12:37;;;;;;;;;;;;;;;24.67;54.64;101200.91;5102483;28;19923;-37
2022/08/27 04:15:03;;;;;;;;;;;;;;;24.67;54.72;101206.47;5122881;28;19930;-37
2022/08/27 04:17:29;;;;;;;;;;;;;;;24.66;54.63;101205.66;5117873;28;19951;-37
2022/08/27 04:19:55;;;;;;;;;;;;;;;24.66;54.72;101208.44;5120851;27;20270;-37
2022/08/27 04:22:20;;;;;;;;;;;;;;;24.66;54.69;101213.19;5117782;28;19928;-37
2022/08/27 04:24:46;;;;;;;;;;;;;;;24.66;54.63;101211.22;5117019;28;19924;-37
2022/08/27 04:27:13;;;;;;;;;;;;;;;24.65;54.67;101209.53;5120410;28;19934;-37
2022/08/27 04:29:39;;;;;;;;;;;;;;;24.66;54.64;101202.03;5102404;28;19986;-37
2022/08/27 04:32:05;;;;;;;;;;;;;;;24.66;54.70;101215.97;5119899;28;20503;-37
2022/08/27 04:34:31;;;;;;;;;;;;;;;24.66;54.66;101215.97;5117657;28;20358;-37
2022/08/27 04:36:56;;;;;;;;;;;;;;;24.66;54.65;101221.53;5118347;28;20312;-37
2022/08/27 04:39:22;;;;;;;;;;;;;;;24.65;54.68;101223.47;5122332;28;19932;-37
2022/08/27 04:41:48;;;;;;;;;;;;;;;24.65;54.68;101234.63;5098665;28;20026;-38
2022/08/27 04:44:14;;;;;;;;;;;;;;;24.66;54.74;101229.91;5122179;28;20030;-37
2022/08/27 04:46:39;;;;;;;;;;;;;;;24.66;54.74;101230.72;5124098;28;19957;-37
2022/08/27 04:49:07;;;;;;;;;;;;;;;24.64;54.67;101230.19;5120153;28;19924;-37
2022/08/27 04:51:35;;;;;;;;;;;;;;;24.65;54.65;101236.56;5106358;28;19955;-37
2022/08/27 04:54:02;;;;;;;;;;;;;;;24.65;54.71;101239.34;5122590;28;20267;-37
2022/08/27 04:56:28;;;;;;;;;;;;;;;24.65;54.68;101240.19;5099227;28;20076;-37
2022/08/27 04:58:53;;;;;;;;;;;;;;;24.65;54.66;101236.56;5120999;28;19931;-37
2022/08/27 05:01:20;;;;;;;;;;;;;;;24.66;54.67;101243.81;5098744;28;19939;-36
2022/08/27 05:03:46;;;;;;;;;;;;;;;24.64;54.67;101235.75;5127970;28;19928;-37
2022/08/27 05:06:12;;;;;;;;;;;;;;;24.65;54.68;101239.34;5118733;28;19968;-37
2022/08/27 05:08:38;;;;;;;;;;;;;;;24.64;54.60;101246.88;5102804;28;19924;-37
2022/08/27 05:11:05;;;;;;;;;;;;;;;24.64;54.66;101246.88;5118758;28;19974;-38
2022/08/27 05:13:31;;;;;;;;;;;;;;;24.64;54.74;101249.69;5120345;28;19923;-37
2022/08/27 05:15:57;;;;;;;;;;;;;;;24.64;54.67;101255.25;5116474;28;20298;-37
2022/08/27 05:18:23;;;;;;;;;;;;;;;24.64;54.72;101251.63;5122288;28;19969;-37
2022/08/27 05:20:48;;;;;;;;;;;;;;;24.64;54.62;101255.25;5124587;27;19928;-37
2022/08/27 05:23:16;;;;;;;;;;;;;;;24.64;54.73;101258.03;5122711;28;19923;-37
2022/08/27 05:25:42;;;;;;;;;;;;;;;24.63;54.70;101256.38;5118493;27;19983;-37
2022/08/27 05:28:08;;;;;;;;;;;;;;;24.63;54.65;101261.97;5119815;28;20046;-37
2022/08/27 05:30:35;;;;;;;;;;;;;;;24.63;54.70;101255.56;5103102;28;20030;-37
2022/08/27 05:33:01;;;;;;;;;;;;;;;24.63;54.65;101259.19;5126185;28;19963;-37
2022/08/27 05:35:27;;;;;;;;;;;;;;;24.64;54.69;101260.00;5125377;28;19931;-37
2022/08/27 05:37:53;;;;;;;;;;;;;;;24.64;54.64;101260.00;5119978;28;19924;-37
2022/08/27 05:40:18;;;;;;;;;;;;;;;24.64;54.70;101265.56;5123596;28;19988;-37
2022/08/27 05:42:44;;;;;;;;;;;;;;;24.63;54.68;101261.97;5117824;28;19923;-37
2022/08/27 05:45:16;;;;;;;;;;;;;;;24.63;54.62;101253.59;5124689;28;19968;-36
2022/08/27 05:47:42;;;;;;;;;;;;;;;24.64;54.63;101262.78;5127284;28;20284;-37
2022/08/27 05:50:10;;;;;;;;;;;;;;;24.63;54.67;101261.97;5122279;28;20380;-37
2022/08/27 05:52:35;;;;;;;;;;;;;;;24.64;54.73;101266.38;5122744;28;19931;-37
2022/08/27 05:55:01;;;;;;;;;;;;;;;24.63;54.71;101264.75;5123595;28;20332;-36
2022/08/27 05:57:27;;;;;;;;;;;;;;;24.63;54.67;101259.19;5120906;28;20576;-37
2022/08/27 06:02:41;;;;;;;;;;;;;;;24.63;54.69;101263.91;5107749;28;20358;-37
2022/08/27 06:05:06;;;;;;;;;;;;;;;24.63;54.59;101258.34;5123131;28;20358;-37
2022/08/27 06:07:33;;;;;;;;;;;;;;;24.62;54.76;101260.31;5125645;28;19970;-37
2022/08/27 06:09:59;;;;;;;;;;;;;;;24.62;54.70;101260.31;5124111;28;20010;-37
2022/08/27 06:12:25;;;;;;;;;;;;;;;24.63;54.65;101258.34;5125137;28;20354;-37
2022/08/27 06:14:53;;;;;;;;;;;;;;;24.62;54.77;101257.53;5120130;28;19930;-37
2022/08/27 06:17:20;;;;;;;;;;;;;;;24.63;54.71;101259.19;5120622;28;20040;-37
2022/08/27 06:19:46;;;;;;;;;;;;;;;24.61;54.68;101261.47;5125749;28;20503;-39
2022/08/27 06:22:11;;;;;;;;;;;;;;;24.62;54.70;101265.06;5127706;28;19928;-37
2022/08/27 06:24:39;;;;;;;;;;;;;;;24.62;54.67;101268.66;5125201;28;19931;-36
2022/08/27 06:27:04;;;;;;;;;;;;;;;24.62;54.58;101267.84;5101605;28;19924;-37
2022/08/27 06:29:30;;;;;;;;;;;;;;;24.62;54.67;101262.28;5106589;28;19982;-37
2022/08/27 06:31:55;;;;;;;;;;;;;;;24.62;54.64;101259.50;5126957;28;20012;-38
2022/08/27 06:34:21;;;;;;;;;;;;;;;24.62;54.64;101265.88;5124655;28;19927;-37
2022/08/27 06:36:46;;;;;;;;;;;;;;;24.61;54.70;101258.69;5121095;28;19928;-38
2022/08/27 06:39:14;;;;;;;;;;;;;;;24.61;54.63;101269.81;5122766;28;20277;-37
2022/08/27 06:41:40;;;;;;;;;;;;;;;24.62;54.64;101265.88;5125284;28;19975;-38
2022/08/27 06:44:06;;;;;;;;;;;;;;;24.62;54.64;101270.63;5099381;28;20405;-37
2022/08/27 06:46:31;;;;;;;;;;;;;;;24.62;54.69;101268.66;5124674;28;19927;-37
2022/08/27 06:48:58;;;;;;;;;;;;;;;24.62;54.67;101265.06;5126146;28;20293;-37
2022/08/27 06:51:25;;;;;;;;;;;;;;;24.62;54.69;101265.88;5101706;28;20014;-37
2022/08/27 06:53:51;;;;;;;;;;;;;;;24.61;54.73;101267.03;5119926;28;19996;-37
2022/08/27 06:56:16;;;;;;;;;;;;;;;24.62;54.69;101265.06;5109431;28;20382;-37
2022/08/27 06:58:42;;;;;;;;;;;;;;;24.62;54.56;101267.84;5123951;28;19923;-37
2022/08/27 07:03:49;;;;;;;;;;;;;;;24.61;54.64;101268.97;5158389;27;20014;-37
2022/08/27 07:06:15;;;;;;;;;;;;;;;24.61;54.63;101266.19;5134244;27;21017;-37
2022/08/27 07:08:41;;;;;;;;;;;;;;;24.60;54.64;101265.34;5151027;27;19927;-36
2022/08/27 07:11:07;;;;;;;;;;;;;;;24.61;54.67;101260.59;5154461;27;19923;-37
2022/08/27 07:13:33;;;;;;;;;;;;;;;24.61;54.73;101267.03;5157546;27;20400;-36
2022/08/27 07:15:58;;;;;;;;;;;;;;;24.61;54.56;101271.75;5130401;27;20011;-38
2022/08/27 07:18:25;;;;;;;;;;;;;;;24.60;54.54;101262.56;5153764;27;19934;-37
2022/08/27 07:20:53;;;;;;;;;;;;;;;24.60;54.61;101265.34;5153475;27;19935;-37
2022/08/27 07:23:19;;;;;;;;;;;;;;;24.59;54.64;101260.94;5157301;27;19931;-37
2022/08/27 07:25:44;;;;;;;;;;;;;;;24.60;54.88;101264.53;5134909;27;20376;-37
2022/08/27 07:28:10;;;;;;;;;;;;;;;24.60;54.66;101267.31;5154814;27;19935;-37
2022/08/27 07:30:36;;;;;;;;;;;;;;;24.60;54.57;101258.97;5152779;27;19927;-37
2022/08/27 07:33:02;;;;;;;;;;;;;;;24.60;54.56;101264.53;5136230;27;20006;-36
2022/08/27 07:35:28;;;;;;;;;;;;;;;24.60;54.61;101270.94;5130822;27;19981;-37
2022/08/27 07:37:53;;;;;;;;;;;;;;;24.60;54.66;101270.94;5155611;27;20293;-37
2022/08/27 07:40:19;;;;;;;;;;;;;;;24.60;54.55;101272.88;5149972;27;19924;-37
2022/08/27 07:45:30;;;;;;;;;;;;;;;24.59;54.70;101274.03;5117993;27;20030;-37
2022/08/27 07:47:56;;;;;;;;;;;;;;;24.60;54.66;101270.09;5132819;27;19931;-37
2022/08/27 07:50:22;;;;;;;;;;;;;;;24.59;54.72;101274.03;5141160;27;19923;-37
2022/08/27 07:52:48;;;;;;;;;;;;;;;24.60;54.67;101275.66;5135939;27;19991;-37
2022/08/27 07:55:14;;;;;;;;;;;;;;;24.60;54.64;101286.81;5133205;27;20002;-37
2022/08/27 07:57:40;;;;;;;;;;;;;;;24.59;54.64;101274.84;5137068;27;20393;-37
2022/08/27 08:00:09;;;;;;;;;;;;;;;24.59;54.56;101280.41;5121982;27;20010;-37
2022/08/27 08:02:34;;;;;;;;;;;;;;;24.59;54.64;101282.38;5118047;27;20015;-37
2022/08/27 08:05:00;;;;;;;;;;;;;;;24.60;54.55;101286.81;5117032;27;19924;-36
2022/08/27 08:07:26;;;;;;;;;;;;;;;24.58;54.71;101281.56;5133076;27;20365;-37
2022/08/27 08:09:52;;;;;;;;;;;;;;;24.59;54.56;101279.59;5137051;27;19946;-37
2022/08/27 08:12:17;;;;;;;;;;;;;;;24.59;54.65;101280.41;5135595;27;19977;-37
2022/08/27 08:14:56;;;;;;;;;;;;;;;24.59;54.57;101272.06;5121146;27;19923;-38
2022/08/27 08:17:23;;;;;;;;;;;;;;;24.59;54.64;101286.00;5118746;27;20014;-37
2022/08/27 08:19:49;;;;;;;;;;;;;;;24.59;54.56;101288.78;5123368;27;20258;-37
2022/08/27 08:22:34;;;;;;;;;;;;;;;24.59;54.60;101287.94;5104068;28;19924;-37
2022/08/27 08:25:00;;;;;;;;;;;;;;;24.59;54.59;101287.94;5123278;28;19950;-37
2022/08/27 08:27:26;;;;;;;;;;;;;;;24.58;54.63;101287.13;5119041;27;19931;-37
2022/08/27 08:29:51;;;;;;;;;;;;;;;24.59;54.62;101296.31;5123348;27;19969;-37
2022/08/27 08:32:17;;;;;;;;;;;;;;;24.59;54.60;101297.13;5121961;28;19924;-37
2022/08/27 08:34:43;;;;;;;;;;;;;;;24.58;54.64;101295.47;5121094;27;19969;-37
2022/08/27 08:37:08;;;;;;;;;;;;;;;24.58;54.63;101292.69;5121184;27;19930;-37
2022/08/27 08:39:34;;;;;;;;;;;;;;;24.59;54.49;101294.34;5098378;28;19943;-37
2022/08/27 08:42:00;;;;;;;;;;;;;;;24.59;54.65;101307.44;5118440;27;20352;-38
2022/08/27 08:44:31;;;;;;;;;;;;;;;24.58;54.58;101301.06;5121755;27;20365;-37
2022/08/27 08:47:02;;;;;;;;;;;;;;;24.58;54.55;101309.41;5109891;28;19951;-37
2022/08/27 08:49:47;;;;;;;;;;;;;;;24.58;54.60;101314.97;5123693;28;19959;-40
2022/08/27 08:52:16;;;;;;;;;;;;;;;24.58;54.65;101312.19;5107065;28;20067;-38
2022/08/27 08:54:59;;;;;;;;;;;;;;;24.58;54.60;101314.16;5126309;27;19923;-38
2022/08/27 08:57:27;;;;;;;;;;;;;;;24.58;54.67;101312.19;5119587;28;20000;-38
2022/08/27 08:59:55;;;;;;;;;;;;;;;24.58;54.59;101311.38;5118127;28;19962;-37
2022/08/27 09:02:21;;;;;;;;;;;;;;;24.59;54.68;101318.59;5104947;28;20026;-37
2022/08/27 09:04:46;;;;;;;;;;;;;;;24.58;54.64;101314.16;5118951;28;19932;-37
2022/08/27 09:07:25;;;;;;;;;;;;;;;24.57;54.59;101318.91;5123138;27;20273;-37
2022/08/27 09:09:54;;;;;;;;;;;;;;;24.58;54.64;101322.50;5121607;28;20456;-37
2022/08/27 09:12:23;;;;;;;;;;;;;;;24.58;54.58;101323.31;5123489;28;20084;-37
2022/08/27 09:14:53;;;;;;;;;;;;;;;24.57;54.56;101323.63;5120557;28;21199;-37
2022/08/27 09:17:19;;;;;;;;;;;;;;;24.58;54.56;101328.06;5101383;28;19928;-37
2022/08/27 09:19:44;;;;;;;;;;;;;;;24.58;54.64;101328.06;5118066;28;19931;-37
2022/08/27 09:22:30;;;;;;;;;;;;;;;24.58;54.60;101328.06;5100556;28;19939;-37
2022/08/27 09:25:16;;;;;;;;;;;;;;;24.57;54.59;101327.25;5104287;28;19963;-37
2022/08/27 09:27:46;;;;;;;;;;;;;;;24.58;54.66;101333.66;5122675;27;19930;-37
2022/08/27 09:30:15;;;;;;;;;;;;;;;24.57;54.52;101321.69;5121016;28;19932;-38
2022/08/27 09:32:41;;;;;;;;;;;;;;;24.57;54.67;101324.47;5119097;28;19965;-37
2022/08/27 09:35:08;;;;;;;;;;;;;;;24.57;54.53;101320.84;5120955;27;19923;-39
2022/08/27 09:37:42;;;;;;;;;;;;;;;24.57;54.66;101320.84;5103793;28;19963;-37
2022/08/27 09:40:13;;;;;;;;;;;;;;;24.57;54.50;101324.47;5102700;28;20413;-37
2022/08/27 09:42:52;;;;;;;;;;;;;;;24.57;54.65;101324.47;5106098;28;20268;-37
2022/08/27 09:45:19;;;;;;;;;;;;;;;24.56;54.58;101322.78;5102086;28;19963;-37
2022/08/27 09:47:47;;;;;;;;;;;;;;;24.57;54.52;101327.25;5099478;28;20018;-37
2022/08/27 09:50:14;;;;;;;;;;;;;;;24.57;54.58;101330.03;5102690;28;19978;-37
2022/08/27 09:52:47;;;;;;;;;;;;;;;24.57;54.53;101324.47;5101785;28;19985;-37
2022/08/27 09:55:24;;;;;;;;;;;;;;;24.57;54.56;101326.41;5099602;28;20023;-37
2022/08/27 09:57:50;;;;;;;;;;;;;;;24.57;54.52;101326.41;5117200;27;19980;-37
2022/08/27 10:00:16;;;;;;;;;;;;;;;24.57;54.50;101329.19;5121176;27;20042;-37
2022/08/27 10:02:50;;;;;;;;;;;;;;;24.56;54.54;101336.72;5121153;27;19930;-37
2022/08/27 10:05:19;;;;;;;;;;;;;;;24.55;54.54;101329.50;5121473;27;20063;-37
2022/08/27 10:07:46;;;;;;;;;;;;;;;24.56;54.65;101333.94;5100709;28;20016;-37
2022/08/27 10:10:17;;;;;;;;;;;;;;;24.56;54.54;101327.53;5123512;27;20036;-37
2022/08/27 10:13:03;;;;;;;;;;;;;;;24.56;54.58;101333.94;5122584;28;19993;-39
2022/08/27 10:15:39;;;;;;;;;;;;;;;24.56;54.55;101327.53;5100141;28;19950;-37
2022/08/27 10:18:11;;;;;;;;;;;;;;;24.56;54.61;101330.31;5124377;27;19942;-37
2022/08/27 10:20:43;;;;;;;;;;;;;;;24.55;54.53;101332.28;5100139;28;20266;-38
2022/08/27 10:25:53;;;;;;;;;;;;;;;24.56;54.46;101330.31;5157864;27;20372;-37
2022/08/27 10:28:26;;;;;;;;;;;;;;;24.56;54.53;101335.91;5140272;27;20017;-37
2022/08/27 10:30:55;;;;;;;;;;;;;;;24.55;54.58;101326.72;5141688;27;19981;-37
2022/08/27 10:33:24;;;;;;;;;;;;;;;24.55;54.55;101323.94;5137654;27;20060;-37
2022/08/27 10:36:12;;;;;;;;;;;;;;;24.56;54.53;101325.56;5135478;27;19927;-37
2022/08/27 10:38:39;;;;;;;;;;;;;;;24.55;54.51;101331.47;5118037;27;20034;-38
2022/08/27 10:41:27;;;;;;;;;;;;;;;24.55;54.47;101326.72;5140598;27;20350;-37
2022/08/27 10:44:05;;;;;;;;;;;;;;;24.55;54.59;101323.13;5120808;27;20018;-37
2022/08/27 10:46:37;;;;;;;;;;;;;;;24.55;54.55;101320.34;5136979;27;20389;-37
2022/08/27 10:49:12;;;;;;;;;;;;;;;24.54;54.45;101319.50;5139340;27;19974;-38
2022/08/27 10:52:06;;;;;;;;;;;;;;;24.54;54.53;101327.84;5133874;27;19974;-37
2022/08/27 10:54:54;;;;;;;;;;;;;;;24.55;54.58;101323.94;5120532;27;19932;-37
2022/08/27 10:57:39;;;;;;;;;;;;;;;24.55;54.54;101323.13;5124342;27;20016;-37
2022/08/27 11:00:24;;;;;;;;;;;;;;;24.55;54.46;101331.47;5129181;27;19931;-37
2022/08/27 11:02:52;;;;;;;;;;;;;;;24.55;54.58;101321.16;5124355;27;19924;-37
2022/08/27 11:05:21;;;;;;;;;;;;;;;24.55;54.58;101323.13;5140933;27;19971;-37
2022/08/27 11:07:55;;;;;;;;;;;;;;;24.54;54.50;101322.28;5140769;27;19977;-37
2022/08/27 11:10:24;;;;;;;;;;;;;;;24.55;54.58;101328.69;5119401;28;20449;-37
2022/08/27 11:12:50;;;;;;;;;;;;;;;24.54;54.49;101322.28;5115486;27;20014;-37
2022/08/27 11:15:19;;;;;;;;;;;;;;;24.53;54.48;101321.47;5137507;27;20338;-37
2022/08/27 11:17:47;;;;;;;;;;;;;;;24.54;54.54;101322.28;5135501;27;20015;-37
2022/08/27 11:20:15;;;;;;;;;;;;;;;24.55;54.52;101323.13;5136737;27;19962;-37
2022/08/27 11:22:44;;;;;;;;;;;;;;;24.53;54.52;101320.66;5124338;27;20010;-37
2022/08/27 11:25:20;;;;;;;;;;;;;;;24.53;54.47;101323.44;5121801;27;20057;-37
2022/08/27 11:27:47;;;;;;;;;;;;;;;24.55;54.54;101317.53;5141843;27;19977;-37
2022/08/27 11:30:32;;;;;;;;;;;;;;;24.53;54.58;101321.47;5137661;27;20381;-37
2022/08/27 11:33:09;;;;;;;;;;;;;;;24.53;54.53;101324.25;5120295;27;19970;-37
2022/08/27 11:35:45;;;;;;;;;;;;;;;24.52;54.72;101319.81;5133107;27;19931;-37
2022/08/27 11:38:15;;;;;;;;;;;;;;;24.54;54.52;101316.72;5123065;27;20053;-37
2022/08/27 11:40:48;;;;;;;;;;;;;;;24.53;54.53;101315.09;5121717;27;20357;-37
2022/08/27 11:43:15;;;;;;;;;;;;;;;24.53;54.44;101321.47;5121799;28;20011;-37
2022/08/27 11:45:51;;;;;;;;;;;;;;;24.52;54.53;101311.47;5121556;27;20023;-37
2022/08/27 11:48:20;;;;;;;;;;;;;;;24.53;54.55;101315.91;5103894;28;19974;-37
2022/08/27 11:50:55;;;;;;;;;;;;;;;24.53;54.53;101315.09;5104894;27;20021;-37
2022/08/27 11:53:26;;;;;;;;;;;;;;;24.52;54.43;101305.91;5122408;27;20138;-37
2022/08/27 11:55:53;;;;;;;;;;;;;;;24.53;54.54;101315.09;5102914;28;20374;-37
2022/08/27 11:58:22;;;;;;;;;;;;;;;24.53;54.51;101315.91;5107145;28;19968;-37
2022/08/27 12:00:48;;;;;;;;;;;;;;;24.52;54.46;101316.19;5121284;27;19963;-37
2022/08/27 12:03:23;;;;;;;;;;;;;;;24.52;54.48;101317.03;5107864;28;19931;-37
2022/08/27 12:05:54;;;;;;;;;;;;;;;24.52;54.46;101305.06;5122324;27;20294;-37
2022/08/27 12:11:02;;;;;;;;;;;;;;;24.52;54.46;101305.06;5182277;27;20006;-37
2022/08/27 12:13:48;;;;;;;;;;;;;;;24.53;54.52;101313.13;5159484;27;20009;-37
2022/08/27 12:16:34;;;;;;;;;;;;;;;24.52;54.49;101307.84;5151875;27;19981;-37
2022/08/27 12:19:19;;;;;;;;;;;;;;;24.53;54.51;101306.72;5156732;27;20379;-37
2022/08/27 12:21:48;;;;;;;;;;;;;;;24.52;54.58;101310.63;5158953;27;20006;-37
2022/08/27 12:24:18;;;;;;;;;;;;;;;24.52;54.49;101305.91;5182105;27;19982;-37
2022/08/27 12:26:53;;;;;;;;;;;;;;;24.52;54.49;101310.63;5167697;27;20505;-38
2022/08/27 12:29:22;;;;;;;;;;;;;;;24.53;54.45;101306.72;5171154;27;19985;-37
2022/08/27 12:31:50;;;;;;;;;;;;;;;24.52;54.50;101310.63;5168469;27;20003;-37
2022/08/27 12:34:18;;;;;;;;;;;;;;;24.51;54.50;101304.22;5176932;27;19983;-37
2022/08/27 12:36:47;;;;;;;;;;;;;;;24.52;54.62;101313.41;5148237;27;20022;-37
2022/08/27 12:39:14;;;;;;;;;;;;;;;24.51;54.52;101307.00;5154515;27;19970;-38
2022/08/27 12:41:43;;;;;;;;;;;;;;;24.52;54.57;101314.25;5175790;27;19977;-37
2022/08/27 12:44:11;;;;;;;;;;;;;;;24.52;54.68;101307.84;5172528;27;19935;-37
2022/08/27 12:46:43;;;;;;;;;;;;;;;24.52;54.49;101311.47;5146422;27;20751;-37
2022/08/27 12:49:08;;;;;;;;;;;;;;;24.51;54.52;101304.22;5177640;27;19927;-37
2022/08/27 12:51:54;;;;;;;;;;;;;;;24.51;54.53;101300.63;5155485;27;19946;-38
2022/08/27 12:54:39;;;;;;;;;;;;;;;24.52;54.45;101288.34;5177418;27;20268;-37
2022/08/27 12:57:23;;;;;;;;;;;;;;;24.51;54.58;101289.50;5170907;27;20373;-37